Flight Track Log - Related Links

Times and Time Zones

All times are in EDT time to prevent confusion due to time zone crossing. See the SWA276 flight status page for this flight to view local times or setup timezone preferences in your user account.

Time Position Orientation Groundspeed Altitude Reporting Facility
EDT Latitude Longitude Course Direction KTS MPH feet Rate Location/Type
Sun 03:31:09 PM 37.7167 -122.2500 310° West 158 182 1,400  Level Northern Cal TRACON
Sun 03:32:09 PM 37.7500 -122.3000 310° West 214 246 3,500 2,508 Climbing Northern Cal TRACON
Sun 03:33:11 PM 37.7542 -122.3561 275° West 233 268 6,500 2,900 Climbing Oakland Center
Sun 03:34:09 PM 37.6667 -122.3833 194° South 307 353 9,300 2,341 Climbing Northern Cal TRACON
Sun 03:35:14 PM 37.5917 -122.4100 196° South 316 364 11,300 3,071 Climbing Oakland Center
Sun 03:36:16 PM 37.5064 -122.3231 141° Southeast 354 407 15,800 3,561 Climbing Oakland Center
Sun 03:37:17 PM 37.4781 -122.1978 106° East 374 430 18,600 1,561 Climbing Oakland Center
Sun 03:38:19 PM 37.4475 -122.0681 106° East 387 445 19,000 829 Climbing Oakland Center
Sun 03:39:20 PM 37.4158 -121.9372 107° East 391 450 20,300 2,000 Climbing Oakland Center
Sun 03:40:22 PM 37.3842 -121.8017 106° East 403 464 23,100 2,634 Climbing Oakland Center
Sun 03:41:23 PM 37.3450 -121.6422 107° East 418 481 25,700 2,146 Climbing Oakland Center
Sun 03:42:25 PM 37.3094 -121.4931 107° East 441 507 27,500 2,081 Climbing Oakland Center
Sun 03:43:27 PM 37.2714 -121.3392 107° East 460 529 30,000 2,585 Climbing Oakland Center
Sun 03:44:28 PM 37.2350 -121.1925 107° East 446 513 32,800 1,463 Climbing Oakland Center
Sun 03:45:30 PM 37.1989 -121.0469 107° East 439 505 33,000 98 Climbing Oakland Center
Sun 03:46:31 PM 37.1631 -120.9036 107° East 435 501 33,000  Level Oakland Center
Sun 03:47:33 PM 37.1253 -120.7583 108° East 441 507 33,000  Level Oakland Center
Sun 03:48:35 PM 37.0831 -120.5836 107° East 468 539 33,000  Level Oakland Center
Sun 03:49:36 PM 37.0450 -120.4403 108° East 441 507 33,000  Level Oakland Center
Sun 03:50:37 PM 37.0078 -120.2947 108° East 441 507 33,000  Level Oakland Center
Sun 03:51:39 PM 36.9686 -120.1483 108° East 439 505 33,000  Level Oakland Center
Sun 03:52:40 PM 36.9508 -120.0039 99° East 435 501 33,000  Level Oakland Center
Sun 03:53:42 PM 36.9789 -119.8550 77° East 438 504 33,000  Level Oakland Center
Sun 03:54:43 PM 37.0069 -119.7072 77° East 438 504 33,000  Level Oakland Center
Sun 03:55:45 PM 37.0350 -119.5594 77° East 436 502 33,000  Level Oakland Center
Sun 03:56:47 PM 37.0678 -119.3825 77° East 435 501 33,000  Level Oakland Center
Sun 03:57:48 PM 37.0939 -119.2342 78° East 433 498 33,000  Level Oakland Center
Sun 03:58:50 PM 37.1217 -119.0856 77° East 438 504 33,000  Level Oakland Center
Sun 03:59:51 PM 37.1483 -118.9392 77° East 432 497 33,000  Level Oakland Center
Sun 04:00:53 PM 37.1719 -118.7883 79° East 440 506 33,000  Level Oakland Center
Sun 04:01:54 PM 37.1900 -118.6353 82° East 443 510 33,000  Level Oakland Center
Sun 04:02:56 PM 37.1647 -118.4853 102° East 441 507 33,000  Level Oakland Center
Sun 04:03:57 PM 37.1375 -118.3347 103° East 440 506 33,000  Level Oakland Center
Sun 04:04:59 PM 37.1061 -118.1861 105° East 443 510 33,000  Level Oakland Center
Sun 04:06:00 PM 37.0678 -117.9975 104° East 465 535 33,000  Level Oakland Center
Sun 04:07:02 PM 37.0342 -117.8364 105° East 478 550 33,000  Level Oakland Center
Sun 04:08:07 PM 37.0011 -117.6769 105° East 474 545 33,000  Level Los Angeles Center
Sun 04:09:04 PM 36.9411 -117.5256 116° Southeast 484 557 33,000  Level Oakland Center
Sun 04:10:06 PM 36.8761 -117.3831 120° Southeast 478 550 33,000  Level Oakland Center
Sun 04:11:07 PM 36.8117 -117.2375 119° Southeast 478 550 33,000  Level Oakland Center
Sun 04:12:09 PM 36.7456 -117.0906 119° Southeast 481 554 33,000  Level Oakland Center
Sun 04:13:10 PM 36.6808 -116.9428 119° Southeast 484 557 33,000 -1,220 Level Oakland Center
Sun 04:14:12 PM 36.6039 -116.7706 119° Southeast 481 554 30,500 -2,227 Descending Oakland Center
Sun 04:15:22 PM 36.5411 -116.6347 120° Southeast 466 536 28,100 -2,273 Descending Los Angeles Center
Sun 04:16:24 PM 36.4725 -116.4869 120° Southeast 452 520 25,500 -2,323 Descending Los Angeles Center
Sun 04:17:26 PM 36.4139 -116.3567 119° Southeast 439 505 23,300 -2,081 Descending Los Angeles Center
Sun 04:18:28 PM 36.3572 -116.2325 120° Southeast 424 488 21,200 -2,258 Descending Los Angeles Center
Sun 04:18:59 PM 36.3217 -116.1611 122° Southeast 416 479 19,800 -2,323 Descending Los Angeles Center
Sun 04:19:30 PM 36.2903 -116.0925 120° Southeast 405 466 18,800 -1,959 Descending Los Angeles Center
Sun 04:19:48 PM 36.2703 -116.0603 128° Southeast 403 464 18,200 -1,935 Descending Los Angeles Center
Sun 04:20:32 PM 36.2369 -115.9786 117° Southeast 388 447 16,800 -1,245 Descending Los Angeles Center
Sun 04:21:34 PM 36.1878 -115.8592 117° Southeast 359 413 16,000 -361 Descending Los Angeles Center
Sun 04:22:45 PM 36.1461 -115.7358 113° Southeast 344 396 16,000 -726 Level Los Angeles Center
Sun 04:23:38 PM 36.1142 -115.6328 111° Southeast 341 392 14,500 -1,655 Descending Los Angeles Center
Sun 04:24:41 PM 36.0767 -115.5217 113° Southeast 335 386 12,800 -1,584 Descending Los Angeles Center
Sun 04:25:43 PM 36.0458 -115.4192 110° East 327 376 11,200 -1,065 Descending Los Angeles Center
Sun 04:26:45 PM 36.0264 -115.3181 103° East 309 356 10,600 -1,048 Descending Los Angeles Center
Sun 04:27:49 PM 36.0189 -115.2031 95° East 289 333 9,000 -1,161 Descending Los Angeles Center
Sun 04:28:49 PM 36.0133 -115.1231 95° East 288 331 8,200 -492 Descending Los Angeles Center
Sun 04:29:51 PM 36.0156 -115.0347 88° East 274 315 8,000 -585 Descending Los Angeles Center
Sun 04:30:52 PM 36.0783 -114.9997 24° Northeast 213 245 7,000 -1,180 Descending Los Angeles Center
Sun 04:31:53 PM 36.1311 -115.0142 348° North 179 206 5,600 -1,296 Descending Los Angeles Center
Sun 04:32:57 PM 36.1386 -115.0661 280° West 179 206 4,300 -1,181 Descending Los Angeles Center
Sun 04:34:00 PM 36.1428 -115.1233 275° West 171 197 3,100 -960 Descending Los Angeles Center
Sun 04:35:02 PM 36.1086 -115.1492 211° Southwest 157 181 2,300 -774 Descending Los Angeles Center
Sun 04:37:00 PM 36.0801 -115.1523 270° West  Level Estimated

Login

Don't have an account? Register now (free) for customized features, flight alerts, and more!